Hauptseite
METAR-TAF:

METAR-TAF

Flughäfen :

Preston, England

Breite: 53-44-42N, Länge: 2-53-02W, Höhe: 17 m

Beobachtung

Neuester Wetterbericht von vor 14 Minuten, um 13:20 UTC
Wind 10 kt aus West, variierte zwischen West/Südwest und Nord/Nordwest
Temperatur 16°C
Luftfeuchtigkeit 72%
Luftdruck 1016 hPa
Sichtweite 10 km oder mehr
Leicht bewölkt in der Höhe von 2200 ft

METAR: EGNO 231320Z 27010KT 250V330 9999 FEW022 16/11 Q1016

Zeit: 14:34 (13:34 UTC)

Prognose

Neuester Wetterbericht von vor 2 Stunden und 38 Minuten, um 10:56 UTC
Gültige Prognose vom 23 um 12 UTC bis 23 um 18 UTC
Wind 8 kt aus West
Sichtweite 10 km oder mehr
Leicht bewölkt in der Höhe von 2000 ft

TAF: EGNO 231056Z 2312/2318 27008KT 9999 FEW020

Wetterbeobachtungen und Prognosen von mehr als 4000 Flughäfen (METAR und TAF Bericht).

Die verfügbaren Stationen werden durch gelbe und rote Markierungen auf der Karte dargestellt.

Führen Sie die Maus auf sie, um den Namen der Station zu sehen.

Darauf klicken, um die Beobachtung von Wetterbeobachtungen und Prognosen zu sehen.

Um die Karte zu ändern : klicken Sie auf den grünen Tasten mit einem schwarzen Kreuz Zum Vergrößern, auf den grünen Button mit einem Gedankenstrich zu verkleinern, oder auf die grünen Pfeile für benachbarte Karten.


METAR-TAF: